Airport details for: LQMO (Bosnia-Herzegovina)

Metar

LQMO 170200Z VRB02KT CAVOK 08/07 Q1025

General details

ICAO: LQMO
IATA: OMO
Name (city): Mostar
Major:
Country: Bosnia-Herzegovina
vACC: vACC Bosnia & Herzegovina
Description:

Mostar International Airport is an airport near Mostar, Bosnia and Herzegovina, situated in the village of Ortiješ, 4 NM (7.4 km; 4.6 mi) south southeast of Mostar's railway station. Mostar Airport was opened for civilian air traffic in 1965 for domestic flights. In 1984, the airport became Mostar International Airport and was announced to be an alternative for Sarajevo International Airport during the 1984 Winter Olympics.

Scenery links:
FS9 scenery: Download
FSX/P3D scenery: Download
XP scenery: Download
Elevation: 174 ft.
Transition altitude: 9500 ft.
MSA: 7800 ft.
Latitude: 43.282903
Longitude: 17.845881
LQMO Charts
LQMO Notams
LQMO Online stations

Runways

Number Course Length Elevation Lat Lon ILS ILS freq ILS FAC GP
16 156° 7874ft / 2400 m 172ft 43.29287 17.8403 - - 3.0°
34 336° 7874ft / 2400 m 157ft 43.272967 17.851439 - - 3.0°